Time;durP1;ratioP1;P1;durP2;ratioP2;P2;SDS_P1;SDS_P2;PMS_P1;PMS_P2;Temp;Humidity;BMP_temperature;BMP_pressure;BME280_temperature;BME280_humidity;BME280_pressure;Samples;Min_cycle;Max_cycle;Signal;HPM_P1;HPM_P2
2021/06/10 00:00:19;;;;;;;6.37;5.87;;;16.10;99.90;;;;;;4938488;29;20437;-58
2021/06/10 00:02:46;;;;;;;8.50;5.90;;;16.10;99.90;;;;;;4942358;29;20439;-58
2021/06/10 00:05:13;;;;;;;6.43;5.83;;;16.10;99.90;;;;;;4934449;29;20621;-59
2021/06/10 00:07:38;;;;;;;6.30;5.80;;;16.10;99.90;;;;;;4941775;29;21150;-59
2021/06/10 00:10:10;;;;;;;6.97;6.37;;;16.00;99.90;;;;;;4933784;29;20445;-59
2021/06/10 00:12:36;;;;;;;5.77;5.37;;;15.90;99.90;;;;;;4952312;29;20230;-58
2021/06/10 00:15:03;;;;;;;6.23;5.70;;;15.90;99.90;;;;;;4936424;29;20908;-59
2021/06/10 00:17:29;;;;;;;5.60;5.20;;;15.90;99.90;;;;;;4932226;29;20362;-58
2021/06/10 00:19:54;;;;;;;6.00;5.60;;;16.00;99.90;;;;;;4934224;29;20491;-58
2021/06/10 00:22:20;;;;;;;6.27;5.77;;;15.90;99.90;;;;;;4941357;29;20204;-59
2021/06/10 00:24:46;;;;;;;5.90;5.40;;;15.90;99.90;;;;;;4946623;29;20197;-55
2021/06/10 00:27:12;;;;;;;6.70;6.10;;;15.90;99.90;;;;;;4945278;29;20216;-59
2021/06/10 00:29:38;;;;;;;6.93;6.40;;;15.90;99.90;;;;;;4933257;29;20456;-59
2021/06/10 00:32:03;;;;;;;6.00;5.57;;;15.90;99.90;;;;;;4936668;29;20909;-58
2021/06/10 00:34:29;;;;;;;6.60;6.10;;;15.90;99.90;;;;;;4933111;29;20644;-59
2021/06/10 00:36:56;;;;;;;7.30;6.80;;;15.80;99.90;;;;;;4938757;28;20421;-58
2021/06/10 00:39:22;;;;;;;6.30;5.90;;;15.80;99.90;;;;;;4945265;29;20634;-58
2021/06/10 00:41:48;;;;;;;6.30;5.80;;;15.70;99.90;;;;;;4939637;29;20429;-59
2021/06/10 00:44:13;;;;;;;6.53;6.03;;;15.70;99.90;;;;;;4936665;29;20365;-57
2021/06/10 00:46:39;;;;;;;7.50;6.80;;;15.70;99.90;;;;;;4918614;29;20261;-59
2021/06/10 00:49:05;;;;;;;7.07;6.30;;;15.60;99.90;;;;;;4951537;29;20325;-58
2021/06/10 00:51:30;;;;;;;7.53;6.93;;;15.50;99.90;;;;;;4943190;29;20222;-58
2021/06/10 00:53:56;;;;;;;6.93;6.43;;;15.40;99.90;;;;;;4938206;29;20193;-59
2021/06/10 00:56:22;;;;;;;7.27;6.53;;;15.40;99.90;;;;;;4944929;29;20197;-57
2021/06/10 00:58:48;;;;;;;6.67;6.07;;;15.30;99.90;;;;;;4931012;29;20433;-59
2021/06/10 01:01:13;;;;;;;6.70;6.20;;;15.30;99.90;;;;;;4946114;29;20193;-59
2021/06/10 01:03:39;;;;;;;6.63;6.13;;;15.20;99.90;;;;;;4933787;29;20197;-59
2021/06/10 01:06:34;;;;;;;7.10;6.53;;;15.20;99.90;;;;;;4932062;29;20213;-53
2021/06/10 01:09:06;;;;;;;6.67;6.00;;;15.10;99.90;;;;;;4933280;29;20205;-54
2021/06/10 01:11:37;;;;;;;8.37;7.67;;;15.00;99.90;;;;;;4937597;29;20421;-58
2021/06/10 01:14:21;;;;;;;7.50;6.90;;;15.00;99.90;;;;;;4932187;29;20439;-58
2021/06/10 01:16:49;;;;;;;7.17;6.67;;;15.00;99.90;;;;;;4942124;29;20475;-58
2021/06/10 01:19:36;;;;;;;6.90;6.30;;;15.00;99.90;;;;;;4932552;29;20451;-59
2021/06/10 01:22:05;;;;;;;7.77;7.17;;;14.90;99.90;;;;;;4940243;29;20427;-58
2021/06/10 01:24:44;;;;;;;8.03;7.30;;;14.90;99.90;;;;;;4930047;29;20452;-59
2021/06/10 01:27:24;;;;;;;8.00;7.20;;;14.90;99.90;;;;;;4932167;29;20558;-58
2021/06/10 01:29:55;;;;;;;7.40;6.77;;;14.90;99.90;;;;;;4940211;29;20431;-58
2021/06/10 01:32:22;;;;;;;7.43;6.73;;;14.80;99.90;;;;;;4946539;29;21136;-58
2021/06/10 01:34:49;;;;;;;7.63;7.03;;;14.70;99.90;;;;;;4943177;29;20902;-58
2021/06/10 01:37:16;;;;;;;7.23;6.50;;;14.60;99.90;;;;;;4939538;29;20454;-59
2021/06/10 01:39:43;;;;;;;7.00;6.50;;;14.60;99.90;;;;;;4942178;29;20464;-58
2021/06/10 01:42:11;;;;;;;6.93;6.37;;;14.70;99.90;;;;;;4929145;29;20440;-58
2021/06/10 01:44:38;;;;;;;7.40;6.80;;;14.70;99.90;;;;;;4933454;29;20478;-58
2021/06/10 01:47:04;;;;;;;6.93;6.43;;;14.60;99.90;;;;;;4932399;29;21030;-58
2021/06/10 01:49:30;;;;;;;7.53;6.83;;;14.60;99.90;;;;;;4940049;28;20452;-58
2021/06/10 01:51:57;;;;;;;7.67;7.07;;;14.70;99.90;;;;;;4939249;29;20725;-58
2021/06/10 01:54:24;;;;;;;7.77;7.17;;;14.60;99.90;;;;;;4948720;29;20188;-58
2021/06/10 01:56:50;;;;;;;7.30;6.77;;;14.50;99.90;;;;;;4934295;29;20448;-58
2021/06/10 01:59:18;;;;;;;7.83;7.13;;;14.50;99.90;;;;;;4934518;29;20513;-59
2021/06/10 02:01:45;;;;;;;7.73;7.00;;;14.40;99.90;;;;;;4946389;29;20929;-56
2021/06/10 02:04:12;;;;;;;8.00;7.20;;;14.40;99.90;;;;;;4947005;29;20438;-58
2021/06/10 02:06:43;;;;;;;7.60;7.00;;;14.40;99.90;;;;;;4932756;29;20468;-58
2021/06/10 02:09:10;;;;;;;7.93;7.13;;;14.40;99.90;;;;;;4953292;29;20424;-58
2021/06/10 02:11:37;;;;;;;8.20;7.50;;;14.50;99.90;;;;;;4934270;29;20436;-58
2021/06/10 02:14:03;;;;;;;7.67;7.07;;;14.40;99.90;;;;;;4934116;29;20503;-57
2021/06/10 02:16:30;;;;;;;8.83;7.60;;;14.40;99.90;;;;;;4948874;29;20546;-58
2021/06/10 02:18:56;;;;;;;8.13;7.30;;;14.40;99.90;;;;;;4936177;29;20590;-58
2021/06/10 02:21:22;;;;;;;8.27;7.57;;;14.40;99.90;;;;;;4938418;29;20477;-59
2021/06/10 02:23:48;;;;;;;8.20;7.50;;;14.40;99.90;;;;;;4948003;29;20502;-59
2021/06/10 02:26:14;;;;;;;8.60;7.90;;;14.30;99.90;;;;;;4931341;29;20208;-58
2021/06/10 02:28:40;;;;;;;8.80;8.10;;;14.40;99.90;;;;;;4933879;29;21032;-59
2021/06/10 02:31:08;;;;;;;8.63;7.87;;;14.30;99.90;;;;;;4944841;29;20531;-59
2021/06/10 02:33:38;;;;;;;8.50;7.80;;;14.30;99.90;;;;;;4936319;29;20183;-59
2021/06/10 02:36:07;;;;;;;9.17;8.30;;;14.20;99.90;;;;;;4933544;29;20810;-59
2021/06/10 02:38:33;;;;;;;9.20;8.40;;;14.20;99.90;;;;;;4937375;29;20439;-59
2021/06/10 02:41:01;;;;;;;8.70;8.00;;;14.20;99.90;;;;;;4930493;29;20440;-58
2021/06/10 02:43:31;;;;;;;9.10;8.40;;;14.10;99.90;;;;;;4946551;29;20430;-59
2021/06/10 02:45:57;;;;;;;9.20;8.40;;;14.10;99.90;;;;;;4934481;29;20468;-58
2021/06/10 02:48:27;;;;;;;8.50;7.80;;;14.00;99.90;;;;;;4933435;29;20438;-59
2021/06/10 02:50:53;;;;;;;9.33;8.53;;;14.00;99.90;;;;;;4933679;29;20439;-59
2021/06/10 02:53:21;;;;;;;9.43;8.67;;;14.00;99.90;;;;;;4933067;29;20410;-59
2021/06/10 02:55:49;;;;;;;8.80;8.00;;;14.00;99.90;;;;;;4932903;29;20665;-58
2021/06/10 02:58:18;;;;;;;8.97;8.27;;;14.00;99.90;;;;;;4934616;29;20475;-56
2021/06/10 03:00:44;;;;;;;8.93;8.23;;;14.00;99.90;;;;;;4933024;29;20513;-59
2021/06/10 03:03:12;;;;;;;9.00;8.20;;;14.00;99.90;;;;;;4933668;29;20971;-59
2021/06/10 03:05:40;;;;;;;8.43;7.73;;;14.00;99.90;;;;;;4932716;29;20466;-59
2021/06/10 03:08:07;;;;;;;11.77;9.30;;;14.00;99.90;;;;;;4933932;29;20725;-57
2021/06/10 03:10:33;;;;;;;9.13;8.23;;;14.00;99.90;;;;;;4929124;29;20446;-58
2021/06/10 03:13:01;;;;;;;8.47;7.80;;;14.00;99.90;;;;;;4915359;29;20429;-59
2021/06/10 03:15:29;;;;;;;8.70;7.90;;;14.00;99.90;;;;;;4931419;29;20440;-58
2021/06/10 03:17:56;;;;;;;9.43;8.63;;;14.00;99.90;;;;;;4934075;29;20419;-59
2021/06/10 03:20:22;;;;;;;9.10;8.33;;;14.00;99.90;;;;;;4932434;29;21077;-59
2021/06/10 03:22:48;;;;;;;9.60;8.37;;;14.00;99.90;;;;;;4934016;29;20886;-59
2021/06/10 03:25:14;;;;;;;8.87;8.07;;;13.90;99.90;;;;;;4932196;29;20449;-58
2021/06/10 03:27:41;;;;;;;9.00;8.20;;;14.00;99.90;;;;;;4933424;29;20466;-58
2021/06/10 03:30:08;;;;;;;9.30;8.50;;;14.00;99.90;;;;;;4933219;29;20427;-58
2021/06/10 03:32:36;;;;;;;10.00;9.20;;;14.10;99.90;;;;;;4939599;29;20929;-59
2021/06/10 03:35:03;;;;;;;9.70;8.90;;;14.20;99.90;;;;;;4946623;29;20928;-58
2021/06/10 03:37:30;;;;;;;9.77;8.87;;;14.20;99.90;;;;;;4913407;29;20536;-55
2021/06/10 03:39:57;;;;;;;9.30;8.60;;;14.20;99.90;;;;;;4933667;29;20773;-56
2021/06/10 03:42:23;;;;;;;9.67;8.97;;;14.30;99.90;;;;;;4931490;29;20532;-60
2021/06/10 03:44:50;;;;;;;10.47;9.40;;;14.40;99.90;;;;;;4933187;29;20448;-59
2021/06/10 03:47:16;;;;;;;9.23;8.10;;;14.40;99.90;;;;;;4932275;29;20455;-59
2021/06/10 03:49:42;;;;;;;8.93;8.23;;;14.50;99.90;;;;;;4920410;29;20571;-57
2021/06/10 03:52:08;;;;;;;9.87;8.97;;;14.50;99.90;;;;;;4932641;29;20479;-59
2021/06/10 03:54:34;;;;;;;8.80;8.10;;;14.50;99.90;;;;;;4923695;29;20434;-59
2021/06/10 03:57:00;;;;;;;8.90;8.10;;;14.50;99.90;;;;;;4932365;29;20476;-59
2021/06/10 03:59:26;;;;;;;9.17;8.40;;;14.50;99.90;;;;;;4934226;29;20444;-58
2021/06/10 04:01:52;;;;;;;9.10;8.30;;;14.50;99.90;;;;;;4944974;29;20441;-59
2021/06/10 04:04:20;;;;;;;9.47;8.47;;;14.60;99.90;;;;;;4934869;29;20243;-59
2021/06/10 04:06:47;;;;;;;10.93;9.10;;;14.50;99.90;;;;;;4934755;29;20187;-55
2021/06/10 04:09:13;;;;;;;9.57;8.67;;;14.50;99.90;;;;;;4934582;29;20805;-60
2021/06/10 04:11:39;;;;;;;9.90;9.10;;;14.50;99.90;;;;;;4940950;28;20423;-59
2021/06/10 04:14:05;;;;;;;8.77;8.13;;;14.40;99.90;;;;;;4937017;29;20445;-59
2021/06/10 04:16:31;;;;;;;9.13;8.33;;;14.50;99.90;;;;;;4924035;29;20485;-59
2021/06/10 04:18:57;;;;;;;8.80;8.10;;;14.50;99.90;;;;;;4927862;29;20449;-59
2021/06/10 04:21:23;;;;;;;10.43;8.87;;;14.50;99.90;;;;;;4925976;29;20200;-59
2021/06/10 04:23:49;;;;;;;9.30;8.50;;;14.50;99.90;;;;;;4935833;29;20790;-60
2021/06/10 04:26:16;;;;;;;9.00;8.20;;;14.60;99.90;;;;;;4935105;29;20324;-59
2021/06/10 04:28:45;;;;;;;8.77;8.07;;;14.60;99.90;;;;;;4936878;29;20531;-59
2021/06/10 04:31:12;;;;;;;8.87;8.07;;;14.70;99.90;;;;;;4941746;29;20448;-59
2021/06/10 04:33:38;;;;;;;8.60;7.80;;;14.70;99.90;;;;;;4933744;29;20436;-59
2021/06/10 04:36:04;;;;;;;9.03;8.33;;;14.80;99.90;;;;;;4937535;29;21073;-59
2021/06/10 04:38:30;;;;;;;8.60;7.90;;;14.80;99.90;;;;;;4936794;29;20528;-59
2021/06/10 04:40:56;;;;;;;9.53;8.73;;;14.80;99.90;;;;;;4942780;29;20906;-57
2021/06/10 04:43:22;;;;;;;8.97;8.20;;;15.00;99.90;;;;;;4935859;29;20563;-58
2021/06/10 04:45:47;;;;;;;8.90;8.13;;;15.00;99.90;;;;;;4927134;29;20246;-59
2021/06/10 04:48:13;;;;;;;8.73;8.10;;;15.10;99.90;;;;;;4930877;29;20184;-59
2021/06/10 04:50:38;;;;;;;8.80;8.10;;;15.20;99.90;;;;;;4942538;29;20219;-59
2021/06/10 04:53:04;;;;;;;8.60;7.77;;;15.30;99.90;;;;;;4931570;29;20287;-59
2021/06/10 04:55:30;;;;;;;8.70;7.73;;;15.40;99.90;;;;;;4918760;29;20189;-60
2021/06/10 04:57:59;;;;;;;9.60;8.70;;;15.50;99.90;;;;;;4928609;29;20434;-59
2021/06/10 05:00:25;;;;;;;8.77;7.60;;;15.60;99.90;;;;;;4945013;29;20608;-59
2021/06/10 05:02:51;;;;;;;8.40;7.80;;;15.80;99.90;;;;;;4931533;29;20499;-59
2021/06/10 05:05:19;;;;;;;7.87;7.23;;;16.00;99.90;;;;;;4930824;29;20424;-59
2021/06/10 05:07:45;;;;;;;7.80;7.00;;;16.20;99.90;;;;;;4931389;29;20189;-59
2021/06/10 05:10:11;;;;;;;8.10;7.50;;;16.30;99.90;;;;;;4933592;29;20419;-56
2021/06/10 05:12:37;;;;;;;8.90;8.10;;;16.40;99.90;;;;;;4930991;29;20244;-58
2021/06/10 05:15:04;;;;;;;7.70;7.10;;;16.60;99.90;;;;;;4928914;29;20446;-59
2021/06/10 05:17:30;;;;;;;8.10;7.40;;;16.70;99.90;;;;;;4943448;29;21040;-59
2021/06/10 05:19:55;;;;;;;8.13;7.43;;;16.90;99.90;;;;;;4940542;29;20551;-59
2021/06/10 05:22:21;;;;;;;8.33;7.70;;;17.10;99.90;;;;;;4931117;29;20264;-59
2021/06/10 05:24:47;;;;;;;7.80;7.20;;;17.30;99.90;;;;;;4938190;29;20275;-59
2021/06/10 05:27:13;;;;;;;7.60;7.10;;;17.40;99.90;;;;;;4933299;29;20197;-59
2021/06/10 05:29:39;;;;;;;7.83;7.17;;;17.50;99.90;;;;;;4918699;29;20462;-59
2021/06/10 05:32:06;;;;;;;8.60;8.00;;;17.50;99.90;;;;;;4935187;29;20330;-58
2021/06/10 05:34:31;;;;;;;8.47;7.80;;;17.60;99.90;;;;;;4936318;29;20472;-58
2021/06/10 05:36:57;;;;;;;8.50;7.90;;;17.70;99.90;;;;;;4951306;29;20551;-58
2021/06/10 05:39:23;;;;;;;8.77;8.17;;;17.80;99.90;;;;;;4933445;29;20201;-60
2021/06/10 05:41:48;;;;;;;8.90;8.17;;;17.90;99.90;;;;;;4922702;29;20190;-61
2021/06/10 05:44:14;;;;;;;8.43;7.83;;;18.00;99.90;;;;;;4934737;29;20201;-60
2021/06/10 05:46:40;;;;;;;8.63;7.87;;;18.10;99.90;;;;;;4924692;29;20216;-60
2021/06/10 05:49:06;;;;;;;7.50;6.90;;;18.00;99.90;;;;;;4924703;29;20531;-60
2021/06/10 05:51:32;;;;;;;8.37;7.73;;;18.10;99.90;;;;;;4935535;29;20420;-60
2021/06/10 05:53:57;;;;;;;8.83;8.23;;;18.10;99.90;;;;;;4934911;29;20280;-60
2021/06/10 05:56:23;;;;;;;7.87;7.37;;;18.20;99.90;;;;;;4946779;29;20201;-60
2021/06/10 05:58:48;;;;;;;8.13;7.53;;;18.00;99.90;;;;;;4934460;29;20185;-60
2021/06/10 06:01:14;;;;;;;8.37;7.70;;;18.10;99.90;;;;;;4935013;29;20243;-60
2021/06/10 06:03:41;;;;;;;9.00;8.20;;;18.20;99.90;;;;;;4934546;29;20253;-60
2021/06/10 06:06:07;;;;;;;9.60;8.87;;;18.40;99.90;;;;;;4932190;29;20273;-60
2021/06/10 06:08:32;;;;;;;8.60;8.00;;;18.40;99.90;;;;;;4932447;29;20477;-59
2021/06/10 06:10:58;;;;;;;8.17;7.67;;;18.60;99.90;;;;;;4939341;29;20269;-57
2021/06/10 06:13:34;;;;;;;8.93;8.23;;;18.80;99.90;;;;;;4935568;29;20256;-60
2021/06/10 06:16:05;;;;;;;8.33;7.63;;;18.80;99.90;;;;;;4932643;29;20237;-60
2021/06/10 06:18:31;;;;;;;8.53;7.90;;;19.10;99.90;;;;;;4933737;29;20449;-60
2021/06/10 06:20:56;;;;;;;10.07;9.17;;;19.40;99.90;;;;;;4932290;29;20437;-60
2021/06/10 06:23:22;;;;;;;9.10;8.40;;;19.60;99.90;;;;;;4933478;29;20192;-58
2021/06/10 06:25:47;;;;;;;8.83;8.13;;;19.80;99.90;;;;;;4915407;29;20189;-58
2021/06/10 06:28:13;;;;;;;8.07;7.47;;;20.00;99.90;;;;;;4932267;29;20711;-59
2021/06/10 06:30:38;;;;;;;8.93;8.23;;;20.20;99.90;;;;;;4927715;29;20421;-57
2021/06/10 06:33:04;;;;;;;8.30;7.77;;;20.20;99.90;;;;;;4932915;29;20205;-59
2021/06/10 06:35:30;;;;;;;8.87;8.17;;;20.50;99.90;;;;;;4932583;29;20189;-59
2021/06/10 06:37:55;;;;;;;8.57;8.07;;;20.50;99.90;;;;;;4935288;29;20178;-59
2021/06/10 06:40:26;;;;;;;7.93;7.33;;;20.70;99.90;;;;;;4940116;29;20264;-58
2021/06/10 06:42:52;;;;;;;8.40;7.80;;;21.00;99.90;;;;;;4946305;29;20186;-58
2021/06/10 06:45:17;;;;;;;9.13;8.13;;;21.20;99.90;;;;;;4932013;29;20500;-59
2021/06/10 06:47:43;;;;;;;8.63;7.50;;;21.20;99.90;;;;;;4934761;29;20194;-59
2021/06/10 06:50:09;;;;;;;9.23;7.77;;;21.10;99.90;;;;;;4923562;29;20186;-59
2021/06/10 06:52:34;;;;;;;9.60;8.37;;;21.30;99.90;;;;;;4944393;29;20275;-60
2021/06/10 06:55:00;;;;;;;9.20;8.40;;;21.40;99.90;;;;;;4940308;29;20532;-59
2021/06/10 06:57:26;;;;;;;9.00;8.40;;;21.50;99.90;;;;;;4940394;29;20283;-60
2021/06/10 06:59:51;;;;;;;8.23;7.63;;;21.60;99.90;;;;;;4935204;29;20185;-60
2021/06/10 07:02:17;;;;;;;8.17;7.67;;;21.80;99.90;;;;;;4939746;29;20190;-60
2021/06/10 07:04:42;;;;;;;8.67;8.07;;;21.80;99.60;;;;;;4934056;29;20194;-60
2021/06/10 07:07:08;;;;;;;8.70;8.10;;;21.80;99.90;;;;;;4929198;29;20233;-59
2021/06/10 07:09:33;;;;;;;9.10;8.20;;;21.80;99.90;;;;;;4931588;29;20186;-59
2021/06/10 07:11:59;;;;;;;8.70;8.00;;;21.90;99.50;;;;;;4945579;29;20200;-59
2021/06/10 07:14:25;;;;;;;8.70;8.10;;;22.00;99.50;;;;;;4931896;29;20208;-59
2021/06/10 07:16:52;;;;;;;8.30;7.80;;;22.00;99.20;;;;;;4932342;29;20292;-60
2021/06/10 07:19:18;;;;;;;9.23;8.47;;;22.20;98.90;;;;;;4935306;29;20181;-59
2021/06/10 07:21:47;;;;;;;8.23;7.63;;;22.30;98.90;;;;;;4940587;29;20434;-58
2021/06/10 07:24:15;;;;;;;8.80;8.20;;;22.10;99.60;;;;;;4942460;29;20442;-61
2021/06/10 07:26:45;;;;;;;9.23;8.53;;;22.20;98.90;;;;;;4944651;29;20430;-60
2021/06/10 07:29:13;;;;;;;8.03;7.53;;;22.10;99.70;;;;;;4934592;29;20452;-59
2021/06/10 07:31:39;;;;;;;9.50;8.70;;;22.40;99.20;;;;;;4932724;29;20447;-59
2021/06/10 07:34:06;;;;;;;8.97;8.23;;;22.60;99.10;;;;;;4934687;29;20468;-59
2021/06/10 07:36:33;;;;;;;8.60;8.10;;;22.80;98.20;;;;;;4936520;29;20461;-60
2021/06/10 07:38:59;;;;;;;9.50;8.80;;;23.10;97.40;;;;;;4935233;29;21262;-60
2021/06/10 07:41:24;;;;;;;9.97;9.17;;;23.00;97.40;;;;;;4936142;29;20852;-60
2021/06/10 07:43:50;;;;;;;10.03;9.27;;;23.40;97.00;;;;;;4938722;29;20536;-59
2021/06/10 07:46:16;;;;;;;9.83;9.13;;;23.50;96.50;;;;;;4928590;29;20246;-60
2021/06/10 07:48:41;;;;;;;9.43;8.83;;;23.80;96.10;;;;;;4936947;29;20227;-60
2021/06/10 07:51:07;;;;;;;10.07;9.07;;;24.00;95.80;;;;;;4931365;29;20221;-60
2021/06/10 07:53:37;;;;;;;9.70;8.70;;;24.30;94.80;;;;;;4935716;29;20276;-59
2021/06/10 07:56:04;;;;;;;9.30;8.30;;;24.50;94.70;;;;;;4933802;29;20476;-60
2021/06/10 07:58:30;;;;;;;8.80;8.20;;;24.90;94.80;;;;;;4923104;29;20773;-59
2021/06/10 08:00:56;;;;;;;10.23;9.43;;;25.10;94.30;;;;;;4931078;29;20429;-60
2021/06/10 08:03:22;;;;;;;10.60;9.80;;;25.20;93.00;;;;;;4922507;29;20421;-59
2021/06/10 08:05:49;;;;;;;10.37;9.67;;;25.20;92.80;;;;;;4935991;29;20438;-59
2021/06/10 08:08:15;;;;;;;11.30;10.50;;;25.30;92.70;;;;;;4931372;29;20201;-59
2021/06/10 08:10:41;;;;;;;11.60;10.70;;;25.30;92.00;;;;;;4929044;29;20480;-60
2021/06/10 08:13:10;;;;;;;10.43;9.73;;;25.40;91.50;;;;;;4927656;29;20205;-60
2021/06/10 08:15:36;;;;;;;10.80;10.00;;;25.60;91.20;;;;;;4939478;29;20177;-60
2021/06/10 08:18:03;;;;;;;10.47;9.73;;;25.50;91.70;;;;;;4947086;29;20431;-60
2021/06/10 08:20:30;;;;;;;10.70;9.97;;;25.40;91.60;;;;;;4929581;29;20607;-60
2021/06/10 08:22:59;;;;;;;10.67;9.97;;;25.30;93.20;;;;;;4932052;29;20519;-60
2021/06/10 08:25:29;;;;;;;11.83;11.00;;;25.20;92.60;;;;;;4931851;29;20437;-59
2021/06/10 08:27:59;;;;;;;10.73;9.83;;;25.10;91.90;;;;;;4921153;29;20430;-59
2021/06/10 08:30:25;;;;;;;11.33;10.53;;;25.10;92.40;;;;;;4930029;29;20465;-59
2021/06/10 08:32:51;;;;;;;10.47;9.77;;;24.90;94.10;;;;;;4949946;29;20451;-59
2021/06/10 08:35:18;;;;;;;11.77;10.70;;;24.70;95.70;;;;;;4930234;29;20186;-58
2021/06/10 08:37:44;;;;;;;10.40;9.70;;;24.50;99.20;;;;;;4947578;29;20220;-59
2021/06/10 08:40:14;;;;;;;11.10;10.37;;;24.40;99.90;;;;;;4936626;29;20433;-59
2021/06/10 08:42:42;;;;;;;11.80;11.00;;;24.30;99.90;;;;;;4934754;29;20890;-59
2021/06/10 08:45:10;;;;;;;10.90;10.00;;;24.10;99.90;;;;;;4931103;29;20433;-59
2021/06/10 08:47:42;;;;;;;11.20;10.40;;;24.10;99.50;;;;;;4931810;29;21157;-59
2021/06/10 08:50:11;;;;;;;11.00;10.10;;;24.10;99.90;;;;;;4933804;29;20437;-60
2021/06/10 08:52:38;;;;;;;12.07;11.17;;;24.20;99.90;;;;;;4930314;29;20492;-59
2021/06/10 08:55:04;;;;;;;10.83;10.03;;;24.20;99.90;;;;;;4931438;29;20422;-59
2021/06/10 08:57:31;;;;;;;11.60;10.80;;;24.30;99.90;;;;;;4924925;29;20473;-58
2021/06/10 08:59:56;;;;;;;11.70;10.80;;;24.30;99.90;;;;;;4932784;29;21185;-59
2021/06/10 09:02:22;;;;;;;11.20;10.27;;;24.30;99.80;;;;;;4930788;29;20453;-59
2021/06/10 09:04:48;;;;;;;12.23;11.40;;;24.20;99.50;;;;;;4925518;29;20197;-59
2021/06/10 09:07:13;;;;;;;12.43;11.53;;;24.20;98.70;;;;;;4929827;29;20323;-60
2021/06/10 09:09:42;;;;;;;13.03;11.77;;;24.20;99.10;;;;;;4928658;29;20182;-59
2021/06/10 09:12:09;;;;;;;12.97;11.83;;;24.20;99.20;;;;;;4930208;29;20724;-59
2021/06/10 09:14:52;;;;;;;11.20;10.40;;;24.40;98.10;;;;;;4925015;29;20434;-60
2021/06/10 09:17:27;;;;;;;12.80;11.80;;;24.30;98.40;;;;;;4930023;29;20481;-60
2021/06/10 09:19:53;;;;;;;11.13;10.23;;;24.50;98.40;;;;;;4931170;29;20409;-60
2021/06/10 09:22:19;;;;;;;11.40;10.50;;;25.00;98.00;;;;;;4928069;29;20826;-60
2021/06/10 09:24:45;;;;;;;12.10;11.20;;;25.60;96.60;;;;;;4930472;29;20186;-60
2021/06/10 09:27:13;;;;;;;11.80;10.90;;;26.30;93.70;;;;;;4929906;29;20445;-60
2021/06/10 09:29:46;;;;;;;12.30;11.40;;;26.70;92.40;;;;;;4928796;29;20438;-60
2021/06/10 09:32:29;;;;;;;12.70;11.80;;;27.80;88.60;;;;;;4930097;29;20429;-60
2021/06/10 09:35:01;;;;;;;13.47;12.40;;;28.70;81.40;;;;;;4915578;29;20448;-60
2021/06/10 09:37:34;;;;;;;12.17;11.17;;;29.10;74.30;;;;;;4925194;29;20555;-60
2021/06/10 09:40:08;;;;;;;13.30;12.40;;;29.60;73.80;;;;;;4926914;29;20578;-58
2021/06/10 09:42:36;;;;;;;12.87;11.83;;;30.50;66.70;;;;;;4921927;29;20413;-60
2021/06/10 09:45:07;;;;;;;12.53;11.63;;;31.30;64.30;;;;;;4928781;29;20599;-60
2021/06/10 09:47:37;;;;;;;12.90;11.90;;;31.80;61.20;;;;;;4927426;29;20438;-60
2021/06/10 09:50:23;;;;;;;12.90;12.00;;;32.20;56.50;;;;;;4929356;29;20469;-60
2021/06/10 09:53:02;;;;;;;12.90;12.10;;;33.10;53.60;;;;;;4918841;29;20501;-60
2021/06/10 09:55:30;;;;;;;13.60;12.70;;;33.70;51.00;;;;;;4930452;29;21210;-60
2021/06/10 09:58:16;;;;;;;12.40;11.70;;;34.00;48.30;;;;;;4929695;29;20457;-60
2021/06/10 10:00:48;;;;;;;15.47;14.27;;;34.80;46.30;;;;;;4912043;29;20527;-60
2021/06/10 10:03:28;;;;;;;14.10;13.10;;;34.60;42.40;;;;;;4920409;29;20444;-61
2021/06/10 10:06:00;;;;;;;14.63;13.70;;;33.90;43.60;;;;;;4930494;29;20445;-60
2021/06/10 10:08:28;;;;;;;14.80;13.90;;;33.00;47.30;;;;;;4932231;29;20507;-60
2021/06/10 10:10:55;;;;;;;14.33;13.43;;;32.50;47.80;;;;;;4929931;29;20491;-59
2021/06/10 10:13:25;;;;;;;14.20;13.30;;;31.70;48.30;;;;;;4933501;29;20433;-60
2021/06/10 10:15:51;;;;;;;16.00;14.90;;;31.20;49.70;;;;;;4915492;29;20496;-62
2021/06/10 10:18:20;;;;;;;14.37;13.57;;;30.90;50.60;;;;;;4932043;29;20429;-60
2021/06/10 10:20:46;;;;;;;16.67;15.47;;;30.70;53.40;;;;;;4933442;29;20190;-60
2021/06/10 10:23:15;;;;;;;16.57;15.37;;;30.00;52.60;;;;;;4933022;29;20928;-60
2021/06/10 10:25:41;;;;;;;15.23;14.23;;;29.40;56.00;;;;;;4931088;29;20449;-59
2021/06/10 10:28:14;;;;;;;15.93;14.93;;;29.10;55.40;;;;;;4932904;29;20434;-59
2021/06/10 10:30:44;;;;;;;15.80;14.60;;;28.80;55.30;;;;;;4932596;29;20461;-59
2021/06/10 10:33:18;;;;;;;16.10;15.00;;;28.20;56.20;;;;;;4933123;29;20433;-58
2021/06/10 10:36:03;;;;;;;16.23;15.10;;;28.00;57.40;;;;;;4934526;29;20440;-59
2021/06/10 10:38:36;;;;;;;15.30;14.23;;;27.70;59.00;;;;;;4939046;29;20416;-59
2021/06/10 10:41:10;;;;;;;14.60;13.20;;;27.40;60.10;;;;;;4932562;29;20441;-59
2021/06/10 10:43:36;;;;;;;15.50;14.10;;;26.00;1.00;;;;;;4941311;29;21117;-60
2021/06/10 10:46:20;;;;;;;21.10;19.33;;;24.40;99.90;;;;;;4937198;29;20417;-59
2021/06/10 10:48:48;;;;;;;24.50;22.53;;;22.40;99.90;;;;;;4939265;29;20412;-60
2021/06/10 10:51:36;;;;;;;25.57;23.47;;;21.40;99.90;;;;;;4929033;29;20469;-60
2021/06/10 10:54:29;;;;;;;25.63;23.63;;;20.80;99.90;;;;;;4939678;29;20473;-60
2021/06/10 10:56:54;;;;;;;15.70;14.57;;;20.40;99.90;;;;;;4918764;29;21311;-60
2021/06/10 10:59:23;;;;;;;14.03;12.93;;;19.90;99.90;;;;;;4916726;29;20423;-59
2021/06/10 11:02:04;;;;;;;13.87;12.70;;;19.50;99.90;;;;;;4923438;29;20205;-60
2021/06/10 11:04:59;;;;;;;12.43;11.53;;;19.10;99.90;;;;;;4927595;29;20429;-59
2021/06/10 11:07:34;;;;;;;13.40;12.33;;;18.70;99.90;;;;;;4929862;29;20947;-60
2021/06/10 11:10:10;;;;;;;15.10;13.70;;;18.50;99.90;;;;;;4923160;29;20443;-60
2021/06/10 11:12:44;;;;;;;15.23;13.73;;;18.20;99.90;;;;;;4913991;29;20517;-60
2021/06/10 11:15:21;;;;;;;14.93;13.70;;;18.00;99.90;;;;;;4926556;29;20433;-60
2021/06/10 11:17:46;;;;;;;15.67;14.37;;;17.80;99.90;;;;;;4929035;29;20630;-60
2021/06/10 11:20:16;;;;;;;15.70;14.30;;;17.70;99.90;;;;;;4919346;29;20438;-60
2021/06/10 11:22:47;;;;;;;14.60;13.40;;;17.60;99.90;;;;;;4920234;29;20679;-60
2021/06/10 11:25:16;;;;;;;14.43;13.17;;;17.70;99.90;;;;;;4916814;29;20505;-60
2021/06/10 11:27:47;;;;;;;14.40;13.13;;;17.70;99.90;;;;;;4929357;29;20511;-60
2021/06/10 11:30:26;;;;;;;12.53;11.43;;;17.70;99.90;;;;;;4946225;29;20256;-60
2021/06/10 11:33:12;;;;;;;12.13;11.13;;;17.90;99.90;;;;;;4931640;29;20438;-60
2021/06/10 11:35:45;;;;;;;13.83;12.73;;;18.00;99.90;;;;;;4941688;29;20455;-59
2021/06/10 11:38:21;;;;;;;12.93;11.90;;;18.10;99.90;;;;;;4930451;29;20444;-59
2021/06/10 11:40:53;;;;;;;13.07;11.97;;;18.20;99.90;;;;;;4931926;29;20523;-59
2021/06/10 11:43:23;;;;;;;12.73;11.63;;;18.20;99.90;;;;;;4930872;29;20494;-59
2021/06/10 11:45:59;;;;;;;11.83;10.83;;;18.40;99.90;;;;;;4938168;29;20437;-56
2021/06/10 11:48:53;;;;;;;11.53;10.60;;;18.70;99.90;;;;;;4927847;29;20832;-54
2021/06/10 11:51:24;;;;;;;6.93;6.43;;;19.30;99.90;;;;;;4933035;29;20485;-55
2021/06/10 11:53:52;;;;;;;7.57;6.97;;;20.00;99.90;;;;;;4932597;29;20984;-56
2021/06/10 11:56:29;;;;;;;6.83;6.23;;;21.00;99.90;;;;;;4927895;29;20457;-56
2021/06/10 11:58:58;;;;;;;6.43;5.83;;;22.00;99.90;;;;;;4929148;29;20484;-56
2021/06/10 12:01:24;;;;;;;6.60;6.00;;;23.00;99.90;;;;;;4926174;29;20429;-56
2021/06/10 12:03:50;;;;;;;6.20;5.80;;;23.80;99.90;;;;;;4929942;29;21161;-52
2021/06/10 12:06:19;;;;;;;7.40;6.90;;;24.20;99.90;;;;;;4927080;29;20190;-56
2021/06/10 12:08:47;;;;;;;6.70;6.20;;;25.00;99.90;;;;;;4912319;29;20186;-54
2021/06/10 12:11:15;;;;;;;7.20;6.70;;;25.40;99.90;;;;;;4917144;29;20864;-56
2021/06/10 12:13:47;;;;;;;6.73;6.33;;;25.60;99.90;;;;;;4910825;29;20429;-56
2021/06/10 12:16:20;;;;;;;7.47;7.07;;;25.60;99.90;;;;;;4924984;29;20517;-51
2021/06/10 12:18:52;;;;;;;7.47;6.87;;;25.70;99.90;;;;;;4925133;29;20438;-54
2021/06/10 12:21:19;;;;;;;7.70;7.10;;;25.60;99.90;;;;;;4930042;29;20428;-55
2021/06/10 12:24:01;;;;;;;7.60;7.10;;;26.10;99.90;;;;;;4928916;29;20500;-49
2021/06/10 12:26:28;;;;;;;7.93;7.43;;;26.10;99.90;;;;;;4930913;29;20421;-56
2021/06/10 12:28:57;;;;;;;8.60;8.00;;;26.00;99.10;;;;;;4926427;29;20520;-55
2021/06/10 12:31:34;;;;;;;7.57;7.07;;;26.40;99.90;;;;;;4937722;29;20453;-56
2021/06/10 12:34:02;;;;;;;7.90;7.40;;;27.30;99.90;;;;;;4934780;29;20440;-54
2021/06/10 12:36:31;;;;;;;7.83;7.33;;;28.40;96.00;;;;;;4938853;29;20968;-55
2021/06/10 12:39:09;;;;;;;6.77;6.37;;;28.80;91.40;;;;;;4937671;29;20761;-55
2021/06/10 12:41:38;;;;;;;7.77;7.27;;;29.20;86.90;;;;;;4928363;29;21646;-54
2021/06/10 12:44:06;;;;;;;7.37;6.87;;;29.90;80.40;;;;;;4937800;29;20433;-50
2021/06/10 12:46:44;;;;;;;8.53;8.03;;;30.40;75.10;;;;;;4932769;29;20540;-55